< Typhoon 199922 2000 Season Typhoon 200002 >
Typhoon 200001 (DAMREY)
General InformationTrack Information on Google MapsDetailed Wind InformationList of All Images || NewsDisaster Info.ResourceGoogle EarthGE AnimationAtom FeedGeoJSON
Detalied Best Track (Time Zone = UTC)
Year Month Day Hour Lat. Long. Pressure (hPa) Wind (kt) Class Image Chart
2000 5 4 18 8.8 137.5 1004 0 2 Image Chart
2000 5 5 00 9.7 136.0 1004 0 2 Image Chart
2000 5 5 06 9.9 135.0 1004 0 2 Image Chart
2000 5 5 12 10.2 134.4 1004 0 2 Image Chart
2000 5 5 18 10.7 133.7 1002 0 2 Image Chart
2000 5 6 00 11.1 133.0 1000 0 2 Image Chart
2000 5 6 06 11.8 132.2 1000 0 2 Image Chart
2000 5 6 12 12.5 132.2 1000 0 2 Image Chart
2000 5 6 18 13.0 131.8 996 0 2 Image Chart
2000 5 7 00 13.2 131.6 992 45 3 Image Chart
2000 5 7 06 13.5 131.2 985 55 4 Image Chart
2000 5 7 12 13.5 131.1 980 55 4 Image Chart
2000 5 7 18 13.7 131.4 975 60 4 Image Chart
2000 5 8 00 14.0 131.5 970 65 5 Image Chart
2000 5 8 06 14.3 132.0 965 70 5 Image Chart
2000 5 8 12 14.5 132.4 960 75 5 Image Chart
2000 5 8 18 15.1 133.0 955 75 5 Image Chart
2000 5 9 00 15.6 133.5 945 80 5 Image Chart
2000 5 9 06 16.4 134.4 935 90 5 Image Chart
2000 5 9 12 17.3 135.3 930 90 5 Image Chart
2000 5 9 18 18.7 136.0 930 90 5 Image Chart
2000 5 10 00 19.5 136.8 935 85 5 Image Chart
2000 5 10 06 20.8 137.8 945 80 5 Image Chart
2000 5 10 12 22.2 138.8 955 75 5 Image Chart
2000 5 10 18 23.0 139.5 960 75 5 Image Chart
2000 5 11 00 23.7 139.9 965 70 5 Image Chart
2000 5 11 03 24.5 140.5 970 65 5 Image Chart
2000 5 11 06 25.3 141.0 970 65 5 Image Chart
2000 5 11 09 25.5 141.3 970 65 5 Image Chart
2000 5 11 12 26.0 142.0 975 60 4 Image Chart
2000 5 11 15 26.5 142.6 975 55 4 Image Chart
2000 5 11 18 27.0 143.5 980 55 4 Image Chart
2000 5 11 21 27.4 144.5 980 55 4 Image Chart
2000 5 12 00 27.7 145.9 985 50 4 Image Chart
2000 5 12 06 28.3 147.9 994 35 3 Image Chart
2000 5 12 12 28.4 149.5 996 0 6 Image Chart
2000 5 12 18 28.3 150.8 996 0 6 Image Chart
2000 5 13 00 28.1 151.8 996 0 6 Image Chart
2000 5 13 06 27.9 153.4 996 0 6 Image Chart
2000 5 13 12 27.7 154.7 1000 0 6 Image Chart
2000 5 13 18 27.4 155.4 1004 0 6 Image Chart
2000 5 14 00 27.2 156.0 1004 0 6 Image Chart
2000 5 14 06 27.5 157.5 1004 0 6 Image Chart
2000 5 14 12 28.1 158.4 1004 0 6 Image Chart
2000 5 14 18 29.0 159.1 1004 0 6 Image Chart
2000 5 15 00 30.1 159.7 1004 0 6 Image Chart
2000 5 15 06 30.6 160.5 1004 0 6 Image Chart
2000 5 15 12 31.2 161.3 1004 0 6 Image Chart
2000 5 15 18 31.7 162.5 1004 0 6 Image Chart
2000 5 16 00 32.3 163.7 1004 0 6 Image Chart
2000 5 16 06 32.7 165.2 1004 0 6 Image Chart
2000 5 16 12 33.0 167.3 1004 0 6 Image Chart
2000 5 16 18 33.2 169.7 1008 0 6 Image Chart
Japan Meteorological Agency Best Track Data | Correction Date : 2001-12-21
< Typhoon 199922 2000 Season Typhoon 200002 >

Help